x

Grays Reef - 40 Nm Southeast Of Savannah, Ga (41008) Wave Buoy

4:50am - Thu 29th Jan 2015 All times are EST. -5 hours from GMT.

  • Sig Wave height 3.0ft
  • Swell Direction
  • Peak Period 12s
  • Average Period 5s
  • Wind
    11mph, 13mph gusts
  • Sea Temp 54°f
  • Air Temp 51°f
  • Sea Pressure 1025.9mb
  • Grays Reef - 40 Nm Southeast Of Savannah, Ga
  • Grays Reef - 40 Nm Southeast Of Savannah, Ga

More Historic Weather Station data

Upgrade to MSW Pro to gain access to the past 30 days of data for over 8000 Wavebouys and Weather Stations around the globe.

Join Pro

Comparision Forecast

View Surf forecast
   
Thu 01/29 4:50am 3ft 12s 5s 11 13 mph 1025.9mb 54f 51f
3:50am 3ft 11s 5s 11 16 mph 1026mb 54f 50f
2:50am 3ft 8s 5s 11 16 mph 1026.3mb 54f 49f
1:50am 3ft 5s 5s 13 16 mph 1026.4mb 53f 49f
12:50am 3ft 6s 5s 11 13 mph 1027mb 53f 49f
Wed 01/28 11:50pm 3.5ft 6s 4s 13 16 mph 1027.1mb 53f 49f
10:50pm 3.5ft 12s 5s 13 16 mph 1026.9mb 53f 49f
9:50pm 3.5ft 6s 5s 13 16 mph 1026.6mb 53f 49f
8:50pm 3ft 7s 5s 13 16 mph 1026.3mb 53f 49f
7:50pm 3.5ft 6s 5s 13 16 mph 1025.9mb 53f 48f
6:50pm 3ft 6s 5s 13 16 mph 1025.7mb 54f 48f
5:50pm 3.5ft 5s 5s 11 13 mph 1025.1mb 54f 47f
4:50pm 3.5ft 5s 5s 11 16 mph 1024.7mb 54f 47f
3:50pm 3.5ft 6s 5s 11 16 mph 1024.1mb 54f 47f
2:50pm 3.5ft 6s 4s 11 13 mph 1024mb 54f 45f
1:50pm 4ft 6s 4s 13 18 mph 1024mb 54f 44f
12:50pm 4.5ft 6s 4s 16 20 mph 1023.9mb 54f 44f
11:50am 4.5ft 5s 4s 20 25 mph 1024.3mb 54f 44f
10:50am 4ft 5s 4s 22 29 mph 1024mb 54f 44f
9:50am 3.5ft 5s 4s 22 27 mph 1023.7mb 54f 44f
8:50am 3.5ft 4s 4s 22 27 mph 1022.7mb 54f 45f
7:50am 3.5ft 4s 4s 20 22 mph 1021.9mb 54f 45f
6:50am 3ft 4s 4s 18 25 mph 1020.8mb 54f 44f
5:50am 3.5ft 5s 4s 18 22 mph 1019.7mb 54f 45f
4:50am 3.5ft 4s 4s 20 22 mph 1018.7mb 54f 45f
3:50am 3.5ft 5s 4s 20 25 mph 1018.2mb 54f 45f
2:50am 3.5ft 4s 4s 22 27 mph 1017.8mb 54f 46f
1:50am 3.5ft 4s 4s 22 27 mph 1017.1mb 54f 47f
12:50am 3.5ft 4s 4s 22 27 mph 1016.9mb 54f 49f
Tue 01/27 11:50pm 2.5ft 4s 4s 25 27 mph 1016.6mb 54f 50f
10:50pm 2.5ft 4s 3s 20 22 mph 1016.2mb 54f 51f
9:50pm 2ft 4s 3s 18 22 mph 1016mb 54f 51f
8:50pm 2.5ft 4s 3s 16 20 mph 1015.9mb 54f 51f
7:50pm 2.5ft 4s 3s 18 22 mph 1015.2mb 54f 52f
6:50pm 2.5ft 4s 3s 18 25 mph 1014.6mb 54f 53f
5:50pm 3.5ft 4s 4s 22 27 mph 1013.4mb 54f 53f
4:50pm 3ft 4s 4s 22 29 mph 1012.3mb 54f 53f
3:50pm 3.5ft 4s 4s 22 29 mph 1011.8mb 55f 53f
2:50pm 3.5ft 4s 4s 20 25 mph 1011.2mb 55f 52f
1:50pm 3ft 4s 4s 20 25 mph 1010.9mb 55f 51f
12:50pm 3.5ft 4s 4s 20 25 mph 1011.4mb 55f 50f
11:50am 2.5ft 4s 4s 22 27 mph 1012.1mb 55f 50f
10:50am 3ft 4s 4s 18 22 mph 1012.8mb 54f 47f
9:50am 3.5ft 4s 4s 22 27 mph 1013mb 54f 46f
8:50am 4ft 4s 4s 25 31 mph 1013.1mb 54f 44f
7:50am 3.5ft 4s 4s 22 27 mph 1012.4mb 54f 44f
6:50am 4.5ft 4s 4s 25 29 mph 1011.9mb 55f 45f
5:50am 4.5ft 5s 4s 27 31 mph 1011.3mb 55f 45f
4:50am 5ft 5s 4s 29 36 mph 1011.5mb 55f 46f
3:50am 5ft 5s 4s 31 36 mph 1010.9mb 55f 45f
2:50am 4.5ft 5s 4s 29 34 mph 1010.9mb 55f 44f
1:50am 5ft 5s 4s 25 29 mph 1011.2mb 55f 44f
12:50am 5ft 5s 4s 29 36 mph 1010.9mb 55f 45f
Mon 01/26 11:50pm 5ft 5s 4s 25 29 mph 1010.9mb 55f 47f
10:50pm 3.5ft 5s 4s 27 34 mph 1010.8mb 55f 48f
9:50pm 4ft 5s 4s 27 34 mph 1010.4mb 55f 50f
8:50pm 3.5ft 4s 4s 27 34 mph 1010.2mb 55f 51f
7:50pm 4ft 5s 4s 25 29 mph 1009.8mb 55f 52f
6:50pm 4.5ft 5s 4s 27 31 mph 1009.6mb 55f 52f
5:50pm 4ft 5s 4s 27 31 mph 1008.6mb 55f 52f
4:50pm 5ft 5s 4s 27 34 mph 1007.7mb 55f 53f
3:50pm 4.5ft 4s 4s 29 36 mph 1006.8mb 55f 54f
2:50pm 5ft 5s 4s 27 34 mph 1006.2mb 55f 54f
1:50pm 4.5ft 5s 4s 25 29 mph 1006.1mb 55f 54f
12:50pm 4.5ft 5s 4s 22 27 mph 1006.7mb 55f 54f
11:50am 4ft 5s 4s 22 27 mph 1007.2mb 55f 53f
10:50am 4ft 4s 4s 22 27 mph 1007.8mb 55f 52f
9:50am 3.5ft 4s 4s 25 29 mph 1007.7mb 55f 52f
8:50am 3.5ft 5s 4s 25 29 mph 1007.4mb 55f 53f
7:50am 3.5ft 5s 4s 20 25 mph 1007.6mb 55f 54f
6:50am 3.5ft 5s 4s 18 22 mph 1007.4mb 55f 54f
5:50am 4ft 6s 4s 18 22 mph 1007.5mb 55f 55f
4:50am 4ft 6s 4s 18 20 mph 1007.6mb 55f 56f
3:50am 3.5ft 6s 4s 20 22 mph 1008.2mb 55f 56f
2:50am 4ft 5s 4s 18 20 mph 1008.4mb 55f 56f
1:50am 4ft 4s 4s 20 25 mph 1009.4mb 55f 56f
12:50am 3.5ft 5s 4s 22 27 mph 1009.9mb 55f 56f
Sun 01/25 11:50pm 3.5ft 5s 4s 20 25 mph 1010.9mb 55f 56f
10:50pm 3.5ft 4s 4s 20 25 mph 1011.4mb 55f 56f
9:50pm 3ft 4s 4s 20 22 mph 1011.9mb 55f 56f
8:50pm 2.5ft 4s 4s 20 22 mph 1011.9mb 55f 56f
7:50pm 2.5ft 4s 4s 18 22 mph 1012.5mb 55f 56f
6:50pm 2ft 3s 3s 18 22 mph 1012.5mb 55f 55f
5:50pm 1.6ft 3s 3s 18 22 mph 1012.1mb 55f 54f
4:50pm 1.3ft 3s 3s 13 16 mph 1012.9mb 55f 53f
3:50pm 1.3ft 2s 3s 13 16 mph 1013.4mb 55f 53f
2:50pm 1ft 10s 4s 13 16 mph 1013.6mb 56f 51f
1:50pm 1ft 11s 4s 11 13 mph 1014.2mb 56f 50f
12:50pm 1.3ft 11s 3s 4
mph
1015.8mb 56f 50f
11:50am 1.3ft 3s 3s 4 7 mph 1016.8mb 55f 49f